Wildrose, North Dakota
Current Conditions -  °F | °C
As of 9:55 AM on Friday 24 Oct 2014 (Local Time) from KD60 Reporting Station
Scattered Clouds Scattered Clouds  
Wind Chill: 11°   Ceiling: Unl
Heat Index: 11°   Visibility: 10mi
Dew Point:   Wind: 15mph
Humidity: 67%   Direction: 260°W
Pressure: 29.9"   Gusts: 18mph
Location:  48.63°N, 103.18°W
Report Text: KD60 241455Z AUTO 26013G16KT 10SM SCT120 11/05 A2990 RMK AO2
Loading
Personal Weather Stations






























Interactive Weather Map
Tropical Storm Tracking
New forecast layout! Learn more

10-Day Weather Forecast

Advertisements
Track Severe Weather on mobile